weather.gov     
National Weather Service

Terminal Aerodrome Forecast
NWS Homepage
This page is being discontinued on March 12, 2014.
The same data is available at this site. Please update your bookmarks.
Thank you, and we apologize for the inconvenience.
Please send an email to SR-SRH.Webmaster@noaa.gov with any concerns.


Current Version
Previous Version:    01  02  03  04  05  06  07  08  09  10  11  12  13  14  15  16  17  18  19  20  21  22  23  24  25  26  27  28  29  
[Printable]
118
FTUS44 KHGX 171725
TAFCLL
TAF
KCLL 171725Z 1718/1818 12010KT P6SM SCT020 BKN050
      TEMPO 1718/1721 BKN020
     FM172100 10008KT P6SM SCT020 BKN035
     FM180200 08004KT P6SM SCT020 BKN050
     FM180600 08004KT 4SM BR SCT015 BKN040
     FM181500 03006KT P6SM BKN040=




118
FTUS44 KHGX 171725
TAFCLL
TAF
KCLL 171725Z 1718/1818 12010KT P6SM SCT020 BKN050
      TEMPO 1718/1721 BKN020
     FM172100 10008KT P6SM SCT020 BKN035
     FM180200 08004KT P6SM SCT020 BKN050
     FM180600 08004KT 4SM BR SCT015 BKN040
     FM181500 03006KT P6SM BKN040=


U.S. Dept. of Commerce
NOAA National Weather Service
1325 East West Highway
Silver Spring, MD 20910
E-mail: w-nws.webmaster@noaa.gov
Page last modified: May 16, 2007
NATIONAL WEATHER SERVICE: for Safety, for Work, for Fun - FOR LIFE